Time;durP1;ratioP1;P1;durP2;ratioP2;P2;SDS_P1;SDS_P2;PMS_P1;PMS_P2;Temp;Humidity;BMP_temperature;BMP_pressure;BME280_temperature;BME280_humidity;BME280_pressure;Samples;Min_cycle;Max_cycle;Signal;HPM_P1;HPM_P2
2022/10/11 00:00:38;;;;;;;6.95;2.72;;;10.90;74.40;;;;;;5114382;28;20028;-75
2022/10/11 00:03:04;;;;;;;7.13;2.88;;;10.90;74.70;;;;;;5114350;28;20020;-76
2022/10/11 00:05:30;;;;;;;7.25;3.10;;;10.90;75.20;;;;;;5114283;28;20050;-76
2022/10/11 00:07:56;;;;;;;6.30;2.35;;;10.80;75.40;;;;;;5114238;28;20051;-76
2022/10/11 00:10:22;;;;;;;6.50;2.58;;;10.70;75.40;;;;;;5114150;28;20032;-76
2022/10/11 00:12:48;;;;;;;4.47;2.35;;;10.70;75.50;;;;;;5096195;28;20024;-75
2022/10/11 00:15:17;;;;;;;4.97;2.33;;;10.70;75.00;;;;;;5096474;28;20497;-75
2022/10/11 00:17:43;;;;;;;7.28;2.55;;;10.60;75.20;;;;;;5114096;28;20020;-75
2022/10/11 00:20:09;;;;;;;8.05;2.47;;;10.60;75.40;;;;;;5114063;28;20028;-76
2022/10/11 00:22:36;;;;;;;5.93;2.90;;;10.60;75.30;;;;;;5113986;28;20032;-75
2022/10/11 00:25:02;;;;;;;7.22;2.15;;;10.60;75.50;;;;;;5114001;28;20054;-76
2022/10/11 00:27:28;;;;;;;8.27;3.28;;;10.60;75.50;;;;;;5113613;28;20032;-75
2022/10/11 00:29:53;;;;;;;8.50;3.10;;;10.60;75.70;;;;;;5095966;28;20031;-76
2022/10/11 00:32:19;;;;;;;4.53;2.85;;;10.60;75.80;;;;;;5095894;28;20471;-76
2022/10/11 00:34:45;;;;;;;7.60;3.30;;;10.60;75.60;;;;;;5113862;28;20023;-75
2022/10/11 00:37:10;;;;;;;9.43;2.90;;;10.60;75.80;;;;;;5113948;28;20039;-76
2022/10/11 00:39:36;;;;;;;14.35;3.40;;;10.60;75.90;;;;;;5113789;28;20032;-75
2022/10/11 00:42:02;;;;;;;6.47;3.00;;;10.50;76.10;;;;;;5113766;28;20036;-76
2022/10/11 00:44:28;;;;;;;7.53;2.97;;;10.50;76.30;;;;;;5113710;28;20110;-75
2022/10/11 00:46:59;;;;;;;6.90;3.05;;;10.50;76.20;;;;;;5113714;28;20452;-75
2022/10/11 00:49:48;;;;;;;7.28;3.03;;;10.50;76.10;;;;;;5095766;28;20020;-75
2022/10/11 00:52:31;;;;;;;6.97;3.22;;;10.50;76.10;;;;;;5113576;28;20028;-75
2022/10/11 00:55:01;;;;;;;9.57;3.38;;;10.50;75.90;;;;;;5113473;28;20040;-75
2022/10/11 00:57:29;;;;;;;6.45;2.65;;;10.50;75.40;;;;;;5113723;28;20016;-75
2022/10/11 00:59:56;;;;;;;8.88;2.78;;;10.50;75.60;;;;;;5113696;28;20012;-75
2022/10/11 01:02:22;;;;;;;6.60;2.60;;;10.40;75.50;;;;;;5113554;28;20040;-76
2022/10/11 01:04:49;;;;;;;5.28;2.40;;;10.40;75.60;;;;;;5113562;28;20046;-75
2022/10/11 01:07:18;;;;;;;10.02;2.80;;;10.40;75.80;;;;;;5113459;28;20031;-76
2022/10/11 01:09:44;;;;;;;5.90;2.63;;;10.40;75.90;;;;;;5095605;28;20061;-76
2022/10/11 01:12:23;;;;;;;4.15;2.70;;;10.30;76.10;;;;;;5113476;28;20028;-76
2022/10/11 01:15:20;;;;;;;5.82;2.78;;;10.30;76.20;;;;;;5113402;28;20021;-75
2022/10/11 01:18:08;;;;;;;6.05;2.88;;;10.40;76.60;;;;;;5113410;28;20024;-75
2022/10/11 01:21:10;;;;;;;6.38;2.80;;;10.30;76.60;;;;;;5095542;28;20039;-75
2022/10/11 01:24:04;;;;;;;4.57;2.30;;;10.30;76.80;;;;;;5113550;28;20088;-75
2022/10/11 01:26:57;;;;;;;5.03;2.70;;;10.20;76.60;;;;;;5113499;28;20034;-75
2022/10/11 01:29:48;;;;;;;6.97;2.78;;;10.10;77.00;;;;;;5113300;28;20020;-75
2022/10/11 01:32:20;;;;;;;7.45;2.85;;;10.00;76.90;;;;;;5095529;28;20035;-75
2022/10/11 01:34:55;;;;;;;10.73;3.08;;;10.00;77.00;;;;;;5113298;28;20021;-75
2022/10/11 01:37:47;;;;;;;6.65;2.65;;;10.00;77.10;;;;;;5113250;28;20016;-75
2022/10/11 01:40:23;;;;;;;5.82;2.40;;;10.00;76.80;;;;;;5115403;28;20073;-75
2022/10/11 01:42:51;;;;;;;8.20;3.20;;;10.00;76.80;;;;;;5117120;28;20483;-75
2022/10/11 01:45:18;;;;;;;5.45;2.58;;;10.00;77.00;;;;;;5116985;28;20031;-76
2022/10/11 01:47:44;;;;;;;8.20;2.88;;;9.90;76.90;;;;;;5117153;28;20074;-76
2022/10/11 01:50:40;;;;;;;8.23;2.83;;;9.90;77.00;;;;;;5116944;28;20035;-75
2022/10/11 01:53:29;;;;;;;8.57;2.80;;;10.00;76.90;;;;;;5116687;28;20031;-75
2022/10/11 01:56:32;;;;;;;5.40;2.65;;;9.90;77.20;;;;;;5116912;28;20024;-76
2022/10/11 01:59:31;;;;;;;6.28;2.72;;;9.90;77.20;;;;;;5116811;28;20091;-75
2022/10/11 02:02:16;;;;;;;9.18;2.78;;;9.90;77.20;;;;;;5116742;28;20403;-75
2022/10/11 02:04:49;;;;;;;6.43;2.90;;;9.90;77.00;;;;;;5116672;28;20356;-76
2022/10/11 02:07:29;;;;;;;5.97;2.95;;;9.80;77.30;;;;;;5116654;28;20020;-75
2022/10/11 02:10:13;;;;;;;7.03;3.00;;;9.80;77.40;;;;;;5098834;28;20031;-76
2022/10/11 02:12:44;;;;;;;9.15;3.10;;;9.90;77.30;;;;;;5116598;28;20460;-76
2022/10/11 02:15:13;;;;;;;9.32;4.05;;;10.00;76.70;;;;;;5116511;28;20026;-75
2022/10/11 02:17:46;;;;;;;9.90;3.92;;;10.10;76.00;;;;;;5116437;28;20054;-76
2022/10/11 02:20:17;;;;;;;7.28;2.95;;;9.90;75.80;;;;;;5116280;28;20054;-76
2022/10/11 02:22:45;;;;;;;5.18;2.95;;;9.90;76.20;;;;;;5116370;28;20044;-75
2022/10/11 02:25:18;;;;;;;8.82;2.95;;;9.80;76.30;;;;;;5081655;28;20032;-76
2022/10/11 02:27:46;;;;;;;4.97;2.28;;;9.80;76.60;;;;;;5116298;28;20050;-76
2022/10/11 02:30:13;;;;;;;6.15;2.30;;;9.90;76.00;;;;;;5116125;28;20035;-75
2022/10/11 02:32:42;;;;;;;4.20;2.08;;;9.90;75.20;;;;;;5116046;28;20059;-75
2022/10/11 02:35:09;;;;;;;3.28;2.10;;;9.70;75.80;;;;;;5116040;28;20029;-75
2022/10/11 02:37:43;;;;;;;5.13;2.15;;;9.60;75.10;;;;;;5098105;28;20075;-76
2022/10/11 02:40:41;;;;;;;5.50;2.25;;;9.50;74.90;;;;;;5116015;28;20051;-76
2022/10/11 02:43:16;;;;;;;3.22;2.08;;;9.30;75.60;;;;;;5115963;28;20087;-75
2022/10/11 02:45:50;;;;;;;4.30;2.22;;;9.30;76.50;;;;;;5115920;28;20053;-75
2022/10/11 02:48:16;;;;;;;4.10;1.98;;;9.20;75.80;;;;;;5115860;28;20046;-75
2022/10/11 02:50:42;;;;;;;6.65;2.20;;;9.20;75.80;;;;;;5115448;28;20028;-75
2022/10/11 02:53:08;;;;;;;4.78;2.15;;;9.20;75.90;;;;;;5097613;28;20032;-75
2022/10/11 02:55:34;;;;;;;2.38;1.70;;;9.20;75.60;;;;;;5115857;28;20019;-75
2022/10/11 02:58:01;;;;;;;4.70;2.25;;;9.20;75.80;;;;;;5115614;28;20024;-75
2022/10/11 03:00:27;;;;;;;3.92;2.13;;;9.10;76.70;;;;;;5115541;28;20020;-75
2022/10/11 03:02:52;;;;;;;6.15;2.55;;;9.10;76.20;;;;;;5115529;28;20020;-75
2022/10/11 03:05:18;;;;;;;5.75;2.58;;;9.10;76.50;;;;;;5115616;28;20021;-76
2022/10/11 03:07:44;;;;;;;3.67;1.83;;;9.10;76.40;;;;;;5115452;28;20020;-76
2022/10/11 03:10:10;;;;;;;2.42;1.77;;;9.10;75.90;;;;;;5115394;28;20085;-75
2022/10/11 03:12:35;;;;;;;5.05;2.20;;;9.10;75.60;;;;;;5097295;28;20061;-76
2022/10/11 03:15:01;;;;;;;3.45;2.22;;;9.00;75.40;;;;;;5115265;28;20020;-76
2022/10/11 03:17:27;;;;;;;6.82;2.17;;;9.00;75.20;;;;;;5115210;28;20058;-75
2022/10/11 03:19:54;;;;;;;5.05;2.20;;;8.90;75.50;;;;;;5097331;28;20391;-75
2022/10/11 03:22:20;;;;;;;4.28;2.10;;;9.00;75.80;;;;;;5115139;28;20031;-76
2022/10/11 03:24:45;;;;;;;5.20;1.95;;;9.10;75.60;;;;;;5115079;28;20032;-75
2022/10/11 03:27:11;;;;;;;4.38;2.38;;;9.10;75.40;;;;;;5115042;28;20024;-75
2022/10/11 03:29:37;;;;;;;6.13;2.17;;;9.00;75.40;;;;;;5096933;28;20058;-75
2022/10/11 03:32:03;;;;;;;5.88;2.30;;;8.90;75.70;;;;;;5114892;28;20032;-76
2022/10/11 03:34:28;;;;;;;4.18;2.20;;;8.90;75.80;;;;;;5096932;28;20047;-76
2022/10/11 03:36:54;;;;;;;3.70;2.05;;;8.90;75.60;;;;;;5114812;28;20024;-75
2022/10/11 03:39:20;;;;;;;4.47;2.00;;;9.00;75.30;;;;;;5114949;28;20028;-76
2022/10/11 03:41:45;;;;;;;8.60;2.10;;;8.90;74.40;;;;;;5114805;28;20035;-75
2022/10/11 03:44:11;;;;;;;4.38;1.30;;;8.80;74.50;;;;;;5114887;28;20036;-75
2022/10/11 03:46:37;;;;;;;3.45;1.77;;;8.80;74.90;;;;;;5114788;28;20028;-76
2022/10/11 03:49:02;;;;;;;4.47;1.80;;;8.80;75.40;;;;;;5114603;28;20387;-75
2022/10/11 03:51:28;;;;;;;2.90;1.88;;;8.80;75.30;;;;;;5114531;28;20146;-75
2022/10/11 03:53:54;;;;;;;3.25;1.60;;;8.90;75.20;;;;;;5093106;28;20087;-75
2022/10/11 03:56:19;;;;;;;3.83;1.98;;;8.90;75.10;;;;;;5076517;28;20031;-75
2022/10/11 03:58:45;;;;;;;3.88;1.83;;;8.90;75.30;;;;;;5093094;28;20434;-75
2022/10/11 04:01:10;;;;;;;6.35;2.05;;;8.90;75.00;;;;;;5094073;28;20035;-75
2022/10/11 04:03:36;;;;;;;2.25;1.60;;;8.90;74.40;;;;;;5093435;28;20032;-76
2022/10/11 04:06:02;;;;;;;1.83;1.42;;;8.80;74.10;;;;;;5094003;28;20046;-75
2022/10/11 04:08:27;;;;;;;3.50;1.52;;;8.70;74.40;;;;;;5092872;28;20028;-75
2022/10/11 04:10:53;;;;;;;5.93;1.77;;;8.60;74.80;;;;;;5093826;28;20029;-76
2022/10/11 04:13:19;;;;;;;5.85;1.90;;;8.60;75.10;;;;;;5093899;28;20021;-75
2022/10/11 04:15:45;;;;;;;1.75;1.40;;;8.70;74.80;;;;;;5092854;28;20455;-75
2022/10/11 04:18:11;;;;;;;4.97;1.85;;;8.70;74.40;;;;;;5093761;28;20041;-75
2022/10/11 04:20:37;;;;;;;2.55;1.73;;;8.70;74.50;;;;;;5093911;28;20028;-76
2022/10/11 04:23:02;;;;;;;4.50;2.63;;;8.70;74.40;;;;;;5092712;28;20036;-75
2022/10/11 04:25:28;;;;;;;3.13;1.90;;;8.70;74.40;;;;;;5093831;28;20020;-75
2022/10/11 04:27:53;;;;;;;2.95;1.83;;;8.60;74.80;;;;;;5093615;28;20096;-75
2022/10/11 04:30:20;;;;;;;5.18;2.08;;;8.60;75.10;;;;;;5093547;28;20025;-76
2022/10/11 04:32:45;;;;;;;4.18;1.45;;;8.60;74.60;;;;;;5093519;28;20088;-75
2022/10/11 04:35:11;;;;;;;9.18;2.30;;;8.60;73.50;;;;;;5093506;28;20029;-76
2022/10/11 04:37:37;;;;;;;3.88;2.10;;;8.50;73.50;;;;;;5093520;28;20107;-75
2022/10/11 04:40:04;;;;;;;3.50;1.70;;;8.30;74.30;;;;;;5092461;28;20071;-75
2022/10/11 04:42:29;;;;;;;4.28;1.80;;;8.30;74.60;;;;;;5092437;28;20032;-75
2022/10/11 04:44:55;;;;;;;3.40;1.80;;;8.30;74.80;;;;;;5093458;28;20047;-75
2022/10/11 04:47:20;;;;;;;2.60;1.27;;;8.30;75.10;;;;;;5093397;28;20102;-75
2022/10/11 04:49:46;;;;;;;2.63;1.55;;;8.20;74.60;;;;;;5093376;28;20027;-75
2022/10/11 04:52:12;;;;;;;3.30;1.77;;;8.10;74.80;;;;;;5093294;28;20032;-75
2022/10/11 04:54:37;;;;;;;3.03;1.80;;;8.00;75.30;;;;;;5106733;28;20045;-75
2022/10/11 04:57:03;;;;;;;3.83;1.83;;;8.00;75.80;;;;;;5113714;28;20479;-75
2022/10/11 04:59:28;;;;;;;2.63;2.00;;;8.00;75.50;;;;;;5095617;28;20091;-75
2022/10/11 05:01:54;;;;;;;2.38;1.60;;;8.00;75.40;;;;;;5113538;28;20032;-76
2022/10/11 05:04:19;;;;;;;4.65;1.85;;;8.10;75.10;;;;;;5113483;28;20028;-76
2022/10/11 05:06:45;;;;;;;3.40;2.05;;;8.10;74.60;;;;;;5095670;28;20043;-76
2022/10/11 05:09:11;;;;;;;3.92;1.75;;;8.10;74.90;;;;;;5095749;28;20032;-77
2022/10/11 05:11:37;;;;;;;4.88;2.10;;;8.00;75.10;;;;;;5113496;28;20036;-77
2022/10/11 05:14:02;;;;;;;3.17;1.77;;;8.00;75.10;;;;;;5115497;28;20059;-77
2022/10/11 05:16:28;;;;;;;4.75;2.08;;;8.10;74.80;;;;;;5099846;28;20051;-76
2022/10/11 05:18:54;;;;;;;4.72;1.80;;;8.10;74.70;;;;;;5117664;28;20046;-77
2022/10/11 05:21:23;;;;;;;2.33;1.60;;;8.20;74.00;;;;;;5099500;28;20024;-75
2022/10/11 05:23:51;;;;;;;4.00;1.50;;;8.00;74.30;;;;;;5117413;28;20024;-76
2022/10/11 05:26:18;;;;;;;4.35;1.92;;;8.00;74.70;;;;;;5117382;28;20087;-76
2022/10/11 05:28:45;;;;;;;2.15;1.67;;;8.10;74.70;;;;;;5117291;28;20035;-75
2022/10/11 05:31:11;;;;;;;3.58;2.00;;;8.10;74.50;;;;;;5117261;28;20084;-75
2022/10/11 05:33:37;;;;;;;4.15;2.38;;;8.10;74.50;;;;;;5099397;28;20020;-76
2022/10/11 05:36:04;;;;;;;5.40;2.35;;;8.10;74.40;;;;;;5117223;28;20039;-76
2022/10/11 05:38:29;;;;;;;6.47;2.40;;;8.10;74.20;;;;;;5117118;28;20025;-75
2022/10/11 05:40:58;;;;;;;7.43;2.47;;;8.00;74.10;;;;;;5117080;28;20058;-75
2022/10/11 05:43:24;;;;;;;3.70;2.38;;;8.00;74.30;;;;;;5117094;28;20016;-75
2022/10/11 05:45:50;;;;;;;8.05;2.40;;;8.00;74.40;;;;;;5117044;28;20027;-75
2022/10/11 05:48:15;;;;;;;6.15;2.83;;;7.90;74.70;;;;;;5116997;28;20394;-76
2022/10/11 05:50:41;;;;;;;6.80;2.90;;;7.90;74.70;;;;;;5116864;28;20031;-76
2022/10/11 05:53:07;;;;;;;8.10;2.65;;;8.00;74.80;;;;;;5098697;28;20043;-76
2022/10/11 05:55:37;;;;;;;6.85;2.72;;;8.00;74.60;;;;;;5116881;28;20035;-76
2022/10/11 05:58:03;;;;;;;6.32;2.78;;;8.00;74.70;;;;;;5116781;28;20027;-75
2022/10/11 06:00:28;;;;;;;4.68;2.17;;;7.80;75.70;;;;;;5117158;28;20021;-77
2022/10/11 06:02:55;;;;;;;4.40;2.50;;;7.80;75.00;;;;;;5117717;28;20048;-76
2022/10/11 06:05:21;;;;;;;5.18;2.28;;;7.80;75.20;;;;;;5116837;28;20028;-75
2022/10/11 06:07:46;;;;;;;5.18;2.50;;;7.90;74.90;;;;;;5116807;28;20024;-76
2022/10/11 06:10:12;;;;;;;6.85;2.40;;;7.80;74.60;;;;;;5116571;28;20028;-75
2022/10/11 06:12:37;;;;;;;5.80;2.60;;;7.70;74.90;;;;;;5116443;28;20024;-75
2022/10/11 06:15:05;;;;;;;6.95;2.50;;;7.70;75.30;;;;;;5098640;28;20028;-75
2022/10/11 06:17:31;;;;;;;6.75;2.45;;;7.70;75.10;;;;;;5098826;28;20016;-75
2022/10/11 06:19:56;;;;;;;4.47;2.05;;;7.70;75.30;;;;;;5116387;28;20071;-75
2022/10/11 06:22:22;;;;;;;3.10;2.15;;;7.60;75.40;;;;;;5116445;28;20108;-75
2022/10/11 06:24:48;;;;;;;8.13;2.90;;;7.60;75.90;;;;;;5097829;28;20081;-75
2022/10/11 06:27:13;;;;;;;4.53;2.55;;;7.70;76.00;;;;;;5116132;28;20039;-75
2022/10/11 06:29:39;;;;;;;4.32;2.50;;;7.80;76.10;;;;;;5116106;28;20107;-75
2022/10/11 06:32:05;;;;;;;5.15;2.40;;;7.80;75.90;;;;;;5116211;28;20032;-75
2022/10/11 06:34:31;;;;;;;4.57;2.22;;;7.70;75.70;;;;;;5116066;28;20020;-75
2022/10/11 06:36:56;;;;;;;8.20;3.05;;;7.70;76.00;;;;;;5116042;28;20032;-75
2022/10/11 06:39:22;;;;;;;7.10;2.75;;;7.60;76.60;;;;;;5116023;28;20098;-75
2022/10/11 06:41:47;;;;;;;4.45;2.60;;;7.70;76.90;;;;;;5115950;28;20471;-74
2022/10/11 06:44:13;;;;;;;9.70;3.33;;;7.80;77.50;;;;;;5115904;28;20043;-74
2022/10/11 06:46:40;;;;;;;6.55;3.15;;;7.90;77.50;;;;;;5115856;28;20035;-74
2022/10/11 06:49:06;;;;;;;8.65;3.22;;;7.90;77.80;;;;;;5115814;28;20028;-74
2022/10/11 06:51:34;;;;;;;5.95;2.88;;;7.90;77.80;;;;;;5097982;28;20058;-74
2022/10/11 06:54:00;;;;;;;5.75;3.08;;;8.00;77.90;;;;;;5115545;28;20051;-74
2022/10/11 06:56:27;;;;;;;7.95;3.55;;;8.00;77.80;;;;;;5115665;28;20020;-74
2022/10/11 06:58:54;;;;;;;7.88;3.00;;;8.10;77.90;;;;;;5115625;28;20024;-74
2022/10/11 07:01:22;;;;;;;6.68;3.70;;;8.30;77.90;;;;;;5115504;28;20483;-74
2022/10/11 07:03:49;;;;;;;8.90;2.88;;;8.30;77.80;;;;;;5115534;28;20498;-74
2022/10/11 07:06:22;;;;;;;4.63;2.97;;;8.40;77.80;;;;;;5115462;28;20157;-74
2022/10/11 07:08:48;;;;;;;6.90;3.05;;;8.50;77.70;;;;;;5115411;28;20080;-74
2022/10/11 07:11:16;;;;;;;9.88;3.20;;;8.50;77.50;;;;;;5115287;28;20032;-74
2022/10/11 07:13:42;;;;;;;6.93;3.88;;;8.60;77.70;;;;;;5115161;28;20024;-74
2022/10/11 07:16:10;;;;;;;7.82;3.40;;;8.60;77.90;;;;;;5115266;28;20020;-74
2022/10/11 07:18:36;;;;;;;8.57;4.43;;;8.60;78.10;;;;;;5115245;28;20024;-74
2022/10/11 07:21:09;;;;;;;8.25;4.00;;;8.70;78.30;;;;;;5115135;28;20031;-73
2022/10/11 07:23:35;;;;;;;8.68;4.50;;;8.90;78.60;;;;;;5115133;28;20028;-74
2022/10/11 07:26:00;;;;;;;8.23;4.50;;;9.00;78.90;;;;;;5115051;28;20050;-73
2022/10/11 07:28:29;;;;;;;10.18;4.78;;;9.00;79.30;;;;;;5114963;28;20102;-73
2022/10/11 07:30:56;;;;;;;11.98;4.53;;;9.00;79.50;;;;;;5097395;28;20084;-74
2022/10/11 07:33:22;;;;;;;9.15;4.72;;;9.00;80.20;;;;;;5097028;28;20032;-73
2022/10/11 07:35:48;;;;;;;10.80;5.40;;;9.10;80.10;;;;;;5114871;28;20035;-73
2022/10/11 07:38:14;;;;;;;9.73;5.40;;;9.20;80.30;;;;;;5113866;28;20032;-74
2022/10/11 07:40:42;;;;;;;9.98;5.50;;;9.40;80.50;;;;;;5114773;28;20035;-74
2022/10/11 07:43:08;;;;;;;9.27;5.80;;;9.50;80.60;;;;;;5114722;28;20027;-74
2022/10/11 07:45:40;;;;;;;10.48;6.45;;;9.60;80.70;;;;;;5114687;28;20020;-74
2022/10/11 07:48:06;;;;;;;11.15;6.32;;;9.70;80.80;;;;;;5114718;28;20025;-72
2022/10/11 07:50:32;;;;;;;9.32;5.90;;;9.80;80.70;;;;;;5114525;28;20045;-74
2022/10/11 07:53:00;;;;;;;10.10;6.00;;;9.90;80.80;;;;;;5114515;28;20020;-73
2022/10/11 07:55:26;;;;;;;13.93;6.65;;;10.00;80.80;;;;;;5114545;28;20042;-74
2022/10/11 07:57:54;;;;;;;13.02;6.45;;;10.10;81.10;;;;;;5114600;28;20020;-74
2022/10/11 08:00:19;;;;;;;16.52;7.68;;;10.10;81.00;;;;;;5114573;28;20028;-74
2022/10/11 08:02:45;;;;;;;13.77;6.85;;;10.20;81.00;;;;;;5114359;28;20040;-74
2022/10/11 08:05:11;;;;;;;13.75;6.10;;;10.30;81.50;;;;;;5114326;28;20052;-73
2022/10/11 08:07:36;;;;;;;18.52;6.70;;;10.40;81.20;;;;;;5114282;28;20027;-74
2022/10/11 08:10:03;;;;;;;13.65;6.50;;;10.50;81.30;;;;;;5114211;28;20028;-74
2022/10/11 08:12:29;;;;;;;13.55;6.60;;;10.60;81.50;;;;;;5114128;28;20028;-73
2022/10/11 08:14:54;;;;;;;12.27;6.60;;;10.70;81.80;;;;;;5096176;28;20031;-74
2022/10/11 08:17:20;;;;;;;16.00;6.82;;;10.80;81.60;;;;;;5114218;28;20028;-74
2022/10/11 08:19:46;;;;;;;11.40;6.60;;;10.90;81.80;;;;;;5114072;28;20052;-74
2022/10/11 08:22:11;;;;;;;13.15;6.85;;;11.00;81.80;;;;;;5113972;28;20020;-74
2022/10/11 08:24:37;;;;;;;12.32;6.45;;;11.20;81.90;;;;;;5113999;28;20035;-74
2022/10/11 08:27:03;;;;;;;11.85;6.38;;;11.30;81.90;;;;;;5113943;28;20024;-74
2022/10/11 08:29:28;;;;;;;15.70;7.47;;;11.40;83.60;;;;;;5113845;28;20036;-74
2022/10/11 08:31:54;;;;;;;13.45;7.05;;;11.40;83.60;;;;;;5113793;28;20049;-74
2022/10/11 08:34:20;;;;;;;14.82;7.20;;;11.50;82.90;;;;;;5095955;28;20042;-74
2022/10/11 08:36:47;;;;;;;12.02;5.95;;;11.60;82.50;;;;;;5113800;28;20035;-74
2022/10/11 08:39:13;;;;;;;12.95;6.25;;;11.70;82.50;;;;;;5096265;28;20479;-74
2022/10/11 08:41:46;;;;;;;18.05;8.02;;;11.80;82.00;;;;;;5113746;28;20024;-74
2022/10/11 08:44:41;;;;;;;14.45;7.35;;;11.90;82.50;;;;;;5113631;28;20028;-74
2022/10/11 08:47:19;;;;;;;14.15;6.80;;;12.00;82.60;;;;;;5113697;28;20062;-74
2022/10/11 08:49:45;;;;;;;16.25;6.85;;;12.10;82.10;;;;;;5113581;28;20031;-74
2022/10/11 08:52:20;;;;;;;10.85;6.65;;;12.20;82.00;;;;;;5113667;28;20032;-73
2022/10/11 08:54:58;;;;;;;9.65;6.05;;;12.30;82.20;;;;;;5113436;28;20044;-74
2022/10/11 08:57:26;;;;;;;14.00;5.85;;;12.40;81.60;;;;;;5095760;28;20024;-74
2022/10/11 09:00:01;;;;;;;14.50;5.88;;;12.60;81.70;;;;;;5113500;28;20012;-74
2022/10/11 09:02:56;;;;;;;10.43;5.25;;;12.60;81.30;;;;;;5113539;28;20055;-74
2022/10/11 09:05:29;;;;;;;8.57;5.07;;;12.60;80.90;;;;;;5113609;28;20025;-74
2022/10/11 09:08:04;;;;;;;10.32;4.82;;;12.80;80.70;;;;;;5113504;28;20017;-74
2022/10/11 09:10:48;;;;;;;11.13;5.63;;;13.00;80.30;;;;;;5113422;28;20046;-74
2022/10/11 09:13:14;;;;;;;9.70;5.22;;;13.10;80.30;;;;;;5113402;28;20053;-74
2022/10/11 09:15:55;;;;;;;16.40;5.53;;;13.10;79.80;;;;;;5113388;28;20020;-74
2022/10/11 09:18:34;;;;;;;10.10;4.72;;;13.20;79.60;;;;;;5113543;28;20016;-73
2022/10/11 09:21:52;;;;;;;9.57;4.30;;;13.30;79.40;;;;;;5113498;28;20024;-73
2022/10/11 09:24:46;;;;;;;10.15;5.07;;;13.40;79.30;;;;;;5051112;28;20059;-74
2022/10/11 09:27:22;;;;;;;10.45;4.15;;;13.50;78.90;;;;;;5112562;28;20040;-74
2022/10/11 09:30:05;;;;;;;10.70;4.32;;;13.50;78.80;;;;;;5095381;28;20080;-74
2022/10/11 09:32:35;;;;;;;12.07;4.20;;;13.60;77.70;;;;;;5113224;28;20368;-74
2022/10/11 09:35:09;;;;;;;11.20;3.50;;;13.60;77.50;;;;;;5113381;28;20052;-74
2022/10/11 09:38:11;;;;;;;12.57;4.18;;;13.70;77.10;;;;;;5113372;28;20024;-74
2022/10/11 09:40:58;;;;;;;12.80;3.55;;;13.80;76.50;;;;;;5079402;28;20064;-74
2022/10/11 09:43:24;;;;;;;9.88;3.17;;;13.90;76.40;;;;;;5113319;28;20036;-74
2022/10/11 09:45:50;;;;;;;12.10;3.53;;;14.10;75.40;;;;;;5113107;28;20021;-74
2022/10/11 09:48:21;;;;;;;10.00;3.70;;;14.20;74.80;;;;;;5113071;28;20024;-74
2022/10/11 09:50:48;;;;;;;7.85;3.67;;;14.30;74.10;;;;;;5113063;28;20016;-74
2022/10/11 09:53:14;;;;;;;9.25;3.17;;;14.30;72.20;;;;;;5112823;28;20387;-74
2022/10/11 09:56:02;;;;;;;11.55;3.53;;;14.30;73.10;;;;;;5113081;28;20084;-75
2022/10/11 09:58:33;;;;;;;7.68;3.17;;;14.50;72.80;;;;;;5113167;28;20043;-76
2022/10/11 10:01:07;;;;;;;7.72;2.55;;;14.60;72.90;;;;;;5114624;28;20049;-74
2022/10/11 10:03:38;;;;;;;8.15;2.53;;;14.70;72.70;;;;;;5116763;28;20027;-74
2022/10/11 10:06:14;;;;;;;11.82;3.08;;;14.80;72.20;;;;;;5116699;28;20024;-74
2022/10/11 10:08:41;;;;;;;7.05;2.72;;;15.00;72.00;;;;;;5098679;28;20467;-74
2022/10/11 10:11:09;;;;;;;7.75;3.72;;;15.10;71.20;;;;;;5116514;28;20039;-74
2022/10/11 10:13:50;;;;;;;7.90;2.97;;;15.20;69.70;;;;;;5116491;28;20031;-74
2022/10/11 10:16:36;;;;;;;6.30;2.70;;;15.20;69.50;;;;;;5116543;28;20016;-74
2022/10/11 10:19:15;;;;;;;8.68;2.40;;;15.40;70.20;;;;;;5116608;28;20054;-74
2022/10/11 10:21:47;;;;;;;6.32;2.10;;;15.60;68.50;;;;;;5116400;28;20077;-74
2022/10/11 10:24:31;;;;;;;8.15;2.30;;;15.60;67.60;;;;;;5116365;28;20092;-74
2022/10/11 10:27:17;;;;;;;9.13;3.30;;;15.70;65.70;;;;;;5116278;28;20028;-74
2022/10/11 10:30:07;;;;;;;9.52;2.53;;;15.80;66.00;;;;;;5116152;28;20016;-74
2022/10/11 10:32:52;;;;;;;5.70;1.80;;;15.90;66.30;;;;;;5116118;28;20024;-74
2022/10/11 10:35:26;;;;;;;11.18;2.00;;;16.00;65.70;;;;;;5116136;28;20023;-74
2022/10/11 10:37:59;;;;;;;4.25;1.13;;;16.00;61.70;;;;;;5116064;28;20016;-74
2022/10/11 10:40:49;;;;;;;8.30;1.98;;;16.00;62.80;;;;;;5116079;28;20026;-74
2022/10/11 10:43:24;;;;;;;6.80;1.48;;;16.00;62.20;;;;;;5115377;28;20483;-74
2022/10/11 10:45:53;;;;;;;5.65;1.75;;;16.00;62.80;;;;;;5115966;28;20024;-74
2022/10/11 10:48:32;;;;;;;7.40;1.67;;;16.20;63.30;;;;;;5115972;28;20047;-74
2022/10/11 10:51:05;;;;;;;5.88;2.78;;;16.30;60.70;;;;;;5115937;28;20024;-74
2022/10/11 10:53:33;;;;;;;6.70;1.40;;;16.40;62.00;;;;;;5115606;28;20040;-74
2022/10/11 10:56:19;;;;;;;5.38;1.50;;;16.40;61.20;;;;;;5115688;28;20018;-74
2022/10/11 10:59:18;;;;;;;11.18;1.63;;;16.60;61.80;;;;;;5115726;28;20019;-74
2022/10/11 11:02:15;;;;;;;9.20;1.77;;;16.70;61.10;;;;;;5115769;28;20020;-74
2022/10/11 11:04:51;;;;;;;6.05;1.83;;;16.80;61.30;;;;;;5112337;28;20048;-74
2022/10/11 11:07:16;;;;;;;7.20;1.67;;;16.90;60.70;;;;;;5115552;28;20083;-74
2022/10/11 11:10:01;;;;;;;6.32;1.30;;;16.90;59.90;;;;;;5115633;28;20073;-74
2022/10/11 11:12:52;;;;;;;8.75;1.60;;;16.80;59.00;;;;;;5115215;28;20043;-74
2022/10/11 11:15:26;;;;;;;6.88;1.73;;;16.80;59.00;;;;;;5115490;28;20028;-74
2022/10/11 11:18:24;;;;;;;10.27;2.28;;;16.90;60.40;;;;;;5115264;28;20020;-74
2022/10/11 11:21:09;;;;;;;8.45;1.80;;;17.00;59.90;;;;;;5115412;28;20379;-74
2022/10/11 11:23:43;;;;;;;6.75;1.50;;;17.10;58.20;;;;;;5115227;28;20024;-74
2022/10/11 11:26:14;;;;;;;6.00;1.45;;;17.00;56.80;;;;;;5115276;28;20050;-74
2022/10/11 11:28:58;;;;;;;8.18;1.73;;;17.00;57.80;;;;;;5115140;28;20024;-74
2022/10/11 11:31:43;;;;;;;7.45;1.55;;;17.10;59.20;;;;;;5115103;28;20048;-74
2022/10/11 11:34:22;;;;;;;8.70;1.60;;;17.40;59.10;;;;;;5114988;28;20045;-74
2022/10/11 11:37:09;;;;;;;9.43;1.73;;;17.50;59.20;;;;;;5115061;28;20035;-74
2022/10/11 11:39:42;;;;;;;10.75;1.60;;;17.60;57.10;;;;;;5115020;28;20023;-74
2022/10/11 11:42:18;;;;;;;7.75;1.27;;;17.60;57.80;;;;;;5114822;28;20429;-75
2022/10/11 11:44:47;;;;;;;6.60;1.52;;;17.50;56.30;;;;;;5114800;28;20046;-74
2022/10/11 11:47:31;;;;;;;5.68;1.10;;;17.40;57.30;;;;;;5114716;28;20031;-74
2022/10/11 11:50:04;;;;;;;7.93;1.42;;;17.40;57.80;;;;;;5114642;28;20086;-74
2022/10/11 11:52:39;;;;;;;7.68;1.13;;;17.40;58.50;;;;;;5114571;28;20024;-74
2022/10/11 11:55:15;;;;;;;4.13;1.40;;;17.30;58.40;;;;;;5114358;28;20108;-74
2022/10/11 11:57:57;;;;;;;6.18;1.50;;;17.30;58.00;;;;;;5114691;28;20020;-74
2022/10/11 12:00:25;;;;;;;4.80;1.25;;;17.30;57.80;;;;;;5114559;28;20026;-74
2022/10/11 12:03:01;;;;;;;5.60;0.98;;;17.40;58.20;;;;;;5114411;28;20052;-74
2022/10/11 12:05:30;;;;;;;6.80;1.40;;;17.40;57.70;;;;;;5114555;28;20024;-74
2022/10/11 12:08:05;;;;;;;8.35;1.33;;;17.60;57.30;;;;;;5114325;28;20039;-74
2022/10/11 12:10:35;;;;;;;5.95;1.52;;;17.60;56.90;;;;;;5114273;28;20058;-74
2022/10/11 12:13:13;;;;;;;5.85;0.90;;;17.70;56.70;;;;;;5114209;28;20020;-74
2022/10/11 12:15:52;;;;;;;9.98;1.63;;;17.80;56.10;;;;;;5114190;28;20398;-74
2022/10/11 12:18:19;;;;;;;5.93;1.33;;;17.80;54.70;;;;;;5114213;28;20027;-74
2022/10/11 12:20:45;;;;;;;8.00;1.83;;;17.80;54.60;;;;;;5114058;28;20035;-74
2022/10/11 12:23:29;;;;;;;5.38;1.10;;;17.80;54.20;;;;;;5113553;28;20032;-74
2022/10/11 12:26:26;;;;;;;6.25;1.10;;;17.90;55.30;;;;;;5114039;28;20024;-74
2022/10/11 12:29:20;;;;;;;6.72;0.98;;;17.90;55.30;;;;;;5113922;28;20042;-74
2022/10/11 12:32:05;;;;;;;8.20;1.20;;;17.90;54.10;;;;;;5113893;28;20027;-74
2022/10/11 12:34:41;;;;;;;9.35;1.42;;;17.90;52.90;;;;;;5082651;28;20039;-74
2022/10/11 12:37:16;;;;;;;4.68;1.02;;;17.90;53.20;;;;;;5095996;28;20031;-74
2022/10/11 12:39:58;;;;;;;4.93;0.98;;;17.90;53.70;;;;;;5113815;28;20028;-74
2022/10/11 12:42:35;;;;;;;9.40;1.52;;;18.00;54.40;;;;;;5113996;28;20024;-74
2022/10/11 12:45:09;;;;;;;4.35;0.88;;;18.10;54.30;;;;;;5113919;28;20049;-74
2022/10/11 12:48:07;;;;;;;8.85;1.70;;;18.30;54.50;;;;;;5113700;28;20032;-74
2022/10/11 12:51:02;;;;;;;5.57;0.88;;;18.40;53.50;;;;;;5095763;28;20031;-74
2022/10/11 12:53:43;;;;;;;9.15;0.88;;;18.50;52.70;;;;;;5113489;28;20028;-74
2022/10/11 12:56:16;;;;;;;8.15;1.40;;;18.50;51.20;;;;;;5113783;28;20032;-74
2022/10/11 12:58:47;;;;;;;8.52;1.27;;;18.50;50.90;;;;;;5113595;28;20023;-74
2022/10/11 13:01:21;;;;;;;5.38;1.30;;;18.60;51.80;;;;;;5113763;28;20032;-74
2022/10/11 13:03:56;;;;;;;6.68;1.10;;;18.70;52.10;;;;;;5113520;28;20028;-74
2022/10/11 13:06:28;;;;;;;5.55;1.23;;;18.70;52.30;;;;;;5095732;28;20089;-74
2022/10/11 13:09:02;;;;;;;6.75;1.27;;;18.80;52.50;;;;;;5113571;28;20024;-74
2022/10/11 13:11:51;;;;;;;6.40;1.13;;;18.80;51.60;;;;;;5113406;28;20099;-74
2022/10/11 13:14:21;;;;;;;4.35;0.77;;;18.90;51.90;;;;;;5103919;28;20032;-74